Time;durP1;ratioP1;P1;durP2;ratioP2;P2;SDS_P1;SDS_P2;PMS_P1;PMS_P2;Temp;Humidity;BMP_temperature;BMP_pressure;BME280_temperature;BME280_humidity;BME280_pressure;Samples;Min_cycle;Max_cycle;Signal;HPM_P1;HPM_P2
2022/10/13 00:02:00;;;;;;;7.60;4.23;;;;;;;;;;5163992;27;20228;-78
2022/10/13 00:04:28;;;;;;;10.27;4.10;;;;;;;;;;5160871;27;20276;-78
2022/10/13 00:06:55;;;;;;;9.37;4.07;;;;;;;;;;5165593;27;20702;-78
2022/10/13 00:09:22;;;;;;;13.20;4.70;;;;;;;;;;5156100;27;20232;-78
2022/10/13 00:11:50;;;;;;;9.93;4.73;;;;;;;;;;5156018;27;20231;-78
2022/10/13 00:14:18;;;;;;;6.97;4.33;;;;;;;;;;5155493;27;20715;-78
2022/10/13 00:16:45;;;;;;;11.87;5.03;;;;;;;;;;5156415;27;20224;-78
2022/10/13 00:19:12;;;;;;;11.03;4.60;;;;;;;;;;5156251;27;20196;-78
2022/10/13 00:21:39;;;;;;;10.00;4.50;;;;;;;;;;5156676;27;20204;-78
2022/10/13 00:24:09;;;;;;;7.20;4.37;;;;;;;;;;5156317;27;20204;-78
2022/10/13 00:26:37;;;;;;;8.93;4.47;;;;;;;;;;5156650;27;20303;-78
2022/10/13 00:29:05;;;;;;;7.87;4.40;;;;;;;;;;5155901;27;20653;-78
2022/10/13 00:31:32;;;;;;;9.90;4.67;;;;;;;;;;5156658;27;20412;-77
2022/10/13 00:34:00;;;;;;;8.67;4.40;;;;;;;;;;5156276;27;20303;-77
2022/10/13 00:36:27;;;;;;;7.03;4.20;;;;;;;;;;5164721;27;20609;-78
2022/10/13 00:38:55;;;;;;;8.67;4.70;;;;;;;;;;5177258;27;20279;-78
2022/10/13 00:41:22;;;;;;;9.83;4.50;;;;;;;;;;5159437;27;20228;-78
2022/10/13 00:43:56;;;;;;;8.07;4.67;;;;;;;;;;5156294;27;20249;-78
2022/10/13 00:46:25;;;;;;;9.07;3.97;;;;;;;;;;5155873;27;20196;-77
2022/10/13 00:48:52;;;;;;;12.47;4.70;;;;;;;;;;5156001;27;20283;-77
2022/10/13 00:51:22;;;;;;;8.33;4.40;;;;;;;;;;5154789;27;20231;-78
2022/10/13 00:53:49;;;;;;;8.90;4.87;;;;;;;;;;5155776;27;20220;-77
2022/10/13 00:56:18;;;;;;;8.33;4.23;;;;;;;;;;5155903;27;20239;-77
2022/10/13 00:58:46;;;;;;;12.53;4.80;;;;;;;;;;5137640;27;20217;-78
2022/10/13 01:01:13;;;;;;;6.97;4.37;;;;;;;;;;5155060;27;20232;-78
2022/10/13 01:03:42;;;;;;;8.97;4.57;;;;;;;;;;5155671;27;20300;-78
2022/10/13 01:06:09;;;;;;;10.00;4.37;;;;;;;;;;5155184;27;20275;-78
2022/10/13 01:08:36;;;;;;;10.97;4.93;;;;;;;;;;5155285;27;20567;-77
2022/10/13 01:11:15;;;;;;;8.30;4.17;;;;;;;;;;5155545;27;20279;-77
2022/10/13 01:13:43;;;;;;;8.70;4.30;;;;;;;;;;5155372;27;20207;-77
2022/10/13 01:16:15;;;;;;;10.43;4.60;;;;;;;;;;5154762;27;20224;-78
2022/10/13 01:18:47;;;;;;;9.10;4.30;;;;;;;;;;5155102;27;20251;-78
2022/10/13 01:21:19;;;;;;;9.20;4.47;;;;;;;;;;5159273;27;20270;-78
2022/10/13 01:24:03;;;;;;;11.63;5.10;;;;;;;;;;5163999;27;20240;-77
2022/10/13 01:26:43;;;;;;;13.70;5.43;;;;;;;;;;5144567;27;20716;-77
2022/10/13 01:29:13;;;;;;;11.30;5.33;;;;;;;;;;5134379;27;20220;-78
2022/10/13 01:31:46;;;;;;;10.77;4.97;;;;;;;;;;5134132;27;20235;-78
2022/10/13 01:34:16;;;;;;;9.07;5.23;;;;;;;;;;5143795;27;20303;-77
2022/10/13 01:36:48;;;;;;;9.53;5.07;;;;;;;;;;5155238;27;20231;-77
2022/10/13 01:39:20;;;;;;;10.37;5.93;;;;;;;;;;5154723;27;20231;-78
2022/10/13 01:41:50;;;;;;;10.57;5.20;;;;;;;;;;5155063;27;20227;-78
2022/10/13 01:44:21;;;;;;;14.13;5.37;;;;;;;;;;5155081;27;20242;-78
2022/10/13 01:46:50;;;;;;;10.60;5.40;;;;;;;;;;5154655;27;20758;-78
2022/10/13 01:49:19;;;;;;;9.33;4.97;;;;;;;;;;5154560;27;20291;-77
2022/10/13 01:51:47;;;;;;;9.63;5.50;;;;;;;;;;5154593;27;20612;-78
2022/10/13 01:54:14;;;;;;;9.10;5.27;;;;;;;;;;5154466;27;20256;-78
2022/10/13 01:56:41;;;;;;;13.13;5.63;;;;;;;;;;5154968;27;20232;-77
2022/10/13 01:59:10;;;;;;;9.97;5.67;;;;;;;;;;5154285;27;20283;-78
2022/10/13 02:01:48;;;;;;;8.83;5.33;;;;;;;;;;5154568;27;20296;-77
2022/10/13 02:04:23;;;;;;;9.73;5.47;;;;;;;;;;5154136;27;20234;-78
2022/10/13 02:06:53;;;;;;;11.53;5.63;;;;;;;;;;5154579;27;20284;-77
2022/10/13 02:09:25;;;;;;;10.13;5.60;;;;;;;;;;5154246;27;20310;-78
2022/10/13 02:11:56;;;;;;;8.93;5.60;;;;;;;;;;5154521;27;20200;-78
2022/10/13 02:14:26;;;;;;;8.80;5.47;;;;;;;;;;5153371;27;20216;-78
2022/10/13 02:16:54;;;;;;;10.63;6.43;;;;;;;;;;5154751;27;20291;-77
2022/10/13 02:19:23;;;;;;;13.70;5.77;;;;;;;;;;5153492;27;20207;-77
2022/10/13 02:21:50;;;;;;;11.77;6.00;;;;;;;;;;5153703;27;20597;-78
2022/10/13 02:24:17;;;;;;;13.03;6.17;;;;;;;;;;5154074;27;20231;-78
2022/10/13 02:26:45;;;;;;;10.40;6.53;;;;;;;;;;5154093;27;20227;-78
2022/10/13 02:29:13;;;;;;;10.40;6.17;;;;;;;;;;5154507;27;20258;-77
2022/10/13 02:31:41;;;;;;;9.70;6.23;;;;;;;;;;5157140;27;20274;-77
2022/10/13 02:34:08;;;;;;;10.30;6.40;;;;;;;;;;5154802;27;20261;-77
2022/10/13 02:36:37;;;;;;;11.40;6.10;;;;;;;;;;5153940;27;20196;-77
2022/10/13 02:39:05;;;;;;;12.67;6.27;;;;;;;;;;5157522;27;20196;-78
2022/10/13 02:41:32;;;;;;;11.67;6.17;;;;;;;;;;5158593;27;20231;-77
2022/10/13 02:43:59;;;;;;;11.13;6.37;;;;;;;;;;5158498;27;20596;-78
2022/10/13 02:46:26;;;;;;;10.47;5.90;;;;;;;;;;5158367;27;20235;-78
2022/10/13 02:48:54;;;;;;;10.97;6.40;;;;;;;;;;5158528;27;20283;-78
2022/10/13 02:51:21;;;;;;;9.40;5.37;;;;;;;;;;5158452;27;20286;-77
2022/10/13 02:53:49;;;;;;;11.67;5.93;;;;;;;;;;5158101;27;20236;-77
2022/10/13 02:56:17;;;;;;;10.67;6.07;;;;;;;;;;5157362;27;20226;-77
2022/10/13 02:58:44;;;;;;;13.03;5.83;;;;;;;;;;5157612;27;20207;-77
2022/10/13 03:01:12;;;;;;;10.47;5.73;;;;;;;;;;5157421;27;20287;-77
2022/10/13 03:03:40;;;;;;;11.67;5.70;;;;;;;;;;5158047;27;20283;-77
2022/10/13 03:06:07;;;;;;;11.73;5.70;;;;;;;;;;5157976;27;20260;-77
2022/10/13 03:08:35;;;;;;;12.03;5.43;;;;;;;;;;5157549;27;20739;-77
2022/10/13 03:11:04;;;;;;;10.10;5.40;;;;;;;;;;5157594;27;20224;-77
2022/10/13 03:13:31;;;;;;;12.83;5.73;;;;;;;;;;5157129;27;20279;-77
2022/10/13 03:15:58;;;;;;;9.93;5.70;;;;;;;;;;5157211;27;20703;-77
2022/10/13 03:18:25;;;;;;;11.77;5.40;;;;;;;;;;5157762;27;20682;-78
2022/10/13 03:20:57;;;;;;;11.10;5.50;;;;;;;;;;5156955;27;20196;-77
2022/10/13 03:23:24;;;;;;;11.80;5.80;;;;;;;;;;5157567;27;20253;-78
2022/10/13 03:25:52;;;;;;;9.47;5.30;;;;;;;;;;5157264;27;20292;-77
2022/10/13 03:28:21;;;;;;;12.17;5.63;;;;;;;;;;5156769;27;20319;-77
2022/10/13 03:30:48;;;;;;;11.83;5.73;;;;;;;;;;5165820;27;20224;-77
2022/10/13 03:33:15;;;;;;;12.13;5.70;;;;;;;;;;5165526;27;20287;-77
2022/10/13 03:35:43;;;;;;;9.07;5.63;;;;;;;;;;5157311;27;20216;-77
2022/10/13 03:38:10;;;;;;;12.77;6.20;;;;;;;;;;5157359;27;20228;-77
2022/10/13 03:40:37;;;;;;;17.47;6.53;;;;;;;;;;5156950;27;20201;-76
2022/10/13 03:43:05;;;;;;;11.57;6.00;;;;;;;;;;5157317;27;20658;-76
2022/10/13 03:45:33;;;;;;;9.43;6.10;;;;;;;;;;5156860;27;20244;-76
2022/10/13 03:48:01;;;;;;;9.63;5.53;;;;;;;;;;5157241;27;20188;-76
2022/10/13 03:50:28;;;;;;;11.17;5.60;;;;;;;;;;5155559;27;20228;-77
2022/10/13 03:52:55;;;;;;;9.73;5.97;;;;;;;;;;5156949;27;20755;-76
2022/10/13 03:55:22;;;;;;;10.97;6.17;;;;;;;;;;5156455;27;20655;-77
2022/10/13 03:57:49;;;;;;;7.27;5.47;;;;;;;;;;5175434;27;20278;-77
2022/10/13 04:00:17;;;;;;;10.70;6.00;;;;;;;;;;5177778;27;20349;-76
2022/10/13 04:02:45;;;;;;;9.53;5.57;;;;;;;;;;5171202;27;20280;-76
2022/10/13 04:05:13;;;;;;;8.93;6.43;;;;;;;;;;5136399;27;20276;-76
2022/10/13 04:07:40;;;;;;;10.80;6.40;;;;;;;;;;5163702;27;20607;-76
2022/10/13 04:10:07;;;;;;;11.17;6.43;;;;;;;;;;5158248;27;20283;-78
2022/10/13 04:12:34;;;;;;;14.37;6.97;;;;;;;;;;5156145;27;20224;-77
2022/10/13 04:15:03;;;;;;;13.30;6.80;;;;;;;;;;5156472;27;20313;-78
2022/10/13 04:17:31;;;;;;;11.23;7.20;;;;;;;;;;5156723;27;20201;-76
2022/10/13 04:19:59;;;;;;;14.47;6.87;;;;;;;;;;5156065;27;20752;-76
2022/10/13 04:22:26;;;;;;;11.20;7.07;;;;;;;;;;5156238;27;20264;-76
2022/10/13 04:24:53;;;;;;;10.30;6.80;;;;;;;;;;5156299;27;20291;-78
2022/10/13 04:27:22;;;;;;;13.00;6.77;;;;;;;;;;5156306;27;20581;-78
2022/10/13 04:29:49;;;;;;;10.40;6.63;;;;;;;;;;5155704;27;20754;-78
2022/10/13 04:32:16;;;;;;;12.73;6.63;;;;;;;;;;5156031;27;20227;-77
2022/10/13 04:34:44;;;;;;;9.33;6.30;;;;;;;;;;5156277;27;20272;-77
2022/10/13 04:37:12;;;;;;;10.73;6.57;;;;;;;;;;5156322;27;20267;-77
2022/10/13 04:39:39;;;;;;;10.97;6.40;;;;;;;;;;5155911;27;20196;-78
2022/10/13 04:42:07;;;;;;;9.93;6.27;;;;;;;;;;5155753;27;20239;-78
2022/10/13 04:44:34;;;;;;;12.80;6.73;;;;;;;;;;5155638;27;20200;-78
2022/10/13 04:47:01;;;;;;;12.77;6.60;;;;;;;;;;5155900;27;20283;-78
2022/10/13 04:49:29;;;;;;;9.37;6.87;;;;;;;;;;5156202;27;20220;-78
2022/10/13 04:51:56;;;;;;;10.40;6.60;;;;;;;;;;5170268;27;20282;-77
2022/10/13 04:54:24;;;;;;;12.70;7.27;;;;;;;;;;5176607;27;20296;-78
2022/10/13 04:56:51;;;;;;;12.40;7.13;;;;;;;;;;5176477;27;20623;-78
2022/10/13 04:59:19;;;;;;;12.17;7.23;;;;;;;;;;5160805;27;20280;-77
2022/10/13 05:01:46;;;;;;;14.17;7.17;;;;;;;;;;5155610;27;20284;-76
2022/10/13 05:04:13;;;;;;;11.70;7.10;;;;;;;;;;5154794;27;20228;-78
2022/10/13 05:06:41;;;;;;;13.47;7.80;;;;;;;;;;5155747;27;20275;-77
2022/10/13 05:09:08;;;;;;;12.57;7.73;;;;;;;;;;5155245;27;20255;-79
2022/10/13 05:11:37;;;;;;;13.30;8.00;;;;;;;;;;5155122;27;20283;-79
2022/10/13 05:14:04;;;;;;;12.33;7.47;;;;;;;;;;5155691;27;20231;-78
2022/10/13 05:16:31;;;;;;;10.50;7.57;;;;;;;;;;5154574;27;20304;-77
2022/10/13 05:18:58;;;;;;;13.93;7.93;;;;;;;;;;5155286;27;20701;-79
2022/10/13 05:21:26;;;;;;;15.00;7.97;;;;;;;;;;5155270;27;20633;-79
2022/10/13 05:23:54;;;;;;;14.60;8.10;;;;;;;;;;5155225;27;20300;-79
2022/10/13 05:26:22;;;;;;;14.27;7.73;;;;;;;;;;5154613;27;20663;-79
2022/10/13 05:28:51;;;;;;;14.47;8.10;;;;;;;;;;5154907;27;20757;-79
2022/10/13 05:31:19;;;;;;;10.60;7.87;;;;;;;;;;5155027;27;20252;-79
2022/10/13 05:33:47;;;;;;;10.53;8.03;;;;;;;;;;5155293;27;20283;-79
2022/10/13 05:36:16;;;;;;;11.57;8.43;;;;;;;;;;5154989;27;20212;-78
2022/10/13 05:38:43;;;;;;;15.60;8.57;;;;;;;;;;5153576;27;20279;-79
2022/10/13 05:41:11;;;;;;;13.77;8.37;;;;;;;;;;5153501;27;20228;-79
2022/10/13 05:43:39;;;;;;;15.07;9.07;;;;;;;;;;5154181;27;20280;-78
2022/10/13 05:46:08;;;;;;;12.43;8.70;;;;;;;;;;5165836;27;20735;-78
2022/10/13 05:48:35;;;;;;;12.33;8.43;;;;;;;;;;5154774;27;20203;-78
2022/10/13 05:51:04;;;;;;;12.03;9.50;;;;;;;;;;5154296;27;20200;-78
2022/10/13 05:53:32;;;;;;;15.13;9.27;;;;;;;;;;5155162;27;20228;-78
2022/10/13 05:56:04;;;;;;;12.67;8.93;;;;;;;;;;5154150;27;20304;-78
2022/10/13 05:58:32;;;;;;;13.70;9.13;;;;;;;;;;5154668;27;20207;-78
2022/10/13 06:00:59;;;;;;;13.50;8.37;;;;;;;;;;5171107;27;20607;-78
2022/10/13 06:03:28;;;;;;;13.57;8.93;;;;;;;;;;5171816;27;20235;-78
2022/10/13 06:05:56;;;;;;;12.43;8.23;;;;;;;;;;5154128;27;20192;-78
2022/10/13 06:08:23;;;;;;;17.50;9.07;;;;;;;;;;5153508;27;20323;-78
2022/10/13 06:10:51;;;;;;;13.60;8.67;;;;;;;;;;5153484;27;20311;-78
2022/10/13 06:13:18;;;;;;;15.27;8.57;;;;;;;;;;5153518;27;20196;-78
2022/10/13 06:15:45;;;;;;;14.70;8.23;;;;;;;;;;5154179;27;20252;-78
2022/10/13 06:18:12;;;;;;;11.67;8.83;;;;;;;;;;5153936;27;20227;-78
2022/10/13 06:20:41;;;;;;;13.50;8.60;;;;;;;;;;5154156;27;20278;-78
2022/10/13 06:23:08;;;;;;;11.70;8.73;;;;;;;;;;5157613;27;20279;-77
2022/10/13 06:25:35;;;;;;;15.13;8.53;;;;;;;;;;5161579;27;20283;-78
2022/10/13 06:28:02;;;;;;;14.27;8.60;;;;;;;;;;5155180;27;20200;-78
2022/10/13 06:30:30;;;;;;;11.20;8.60;;;;;;;;;;5154250;27;20302;-78
2022/10/13 06:32:57;;;;;;;12.13;8.70;;;;;;;;;;5153508;27;20600;-78
2022/10/13 06:35:24;;;;;;;15.20;9.53;;;;;;;;;;5153364;27;20684;-78
2022/10/13 06:37:53;;;;;;;15.93;9.83;;;;;;;;;;5153838;27;20243;-78
2022/10/13 06:40:20;;;;;;;10.73;8.73;;;;;;;;;;5153874;27;20214;-77
2022/10/13 06:42:51;;;;;;;15.83;8.97;;;;;;;;;;5154459;27;20224;-78
2022/10/13 06:45:19;;;;;;;11.83;8.80;;;;;;;;;;5154044;27;20239;-79
2022/10/13 06:47:46;;;;;;;13.67;8.67;;;;;;;;;;5154046;27;20247;-78
2022/10/13 06:50:13;;;;;;;12.23;8.67;;;;;;;;;;5153624;27;20200;-79
2022/10/13 06:52:42;;;;;;;11.30;8.40;;;;;;;;;;5154035;27;20231;-78
2022/10/13 06:55:10;;;;;;;10.87;7.70;;;;;;;;;;5153947;27;20210;-77
2022/10/13 06:57:38;;;;;;;14.37;7.80;;;;;;;;;;5154052;27;20254;-78
2022/10/13 07:00:05;;;;;;;10.73;7.20;;;;;;;;;;5154397;27;20196;-77
2022/10/13 07:02:33;;;;;;;10.73;7.27;;;;;;;;;;5154036;27;20283;-78
2022/10/13 07:05:00;;;;;;;11.33;6.90;;;;;;;;;;5154167;27;20284;-78
2022/10/13 07:07:27;;;;;;;7.03;5.97;;;;;;;;;;5153056;27;20203;-78
2022/10/13 07:09:54;;;;;;;11.27;6.73;;;;;;;;;;5153940;27;20664;-78
2022/10/13 07:12:23;;;;;;;9.00;6.23;;;;;;;;;;5153879;27;20232;-77
2022/10/13 07:14:50;;;;;;;11.30;6.13;;;;;;;;;;5154229;27;20257;-78
2022/10/13 07:17:17;;;;;;;11.03;6.43;;;;;;;;;;5153728;27;20311;-79
2022/10/13 07:19:47;;;;;;;11.80;6.37;;;;;;;;;;5153574;27;20377;-78
2022/10/13 07:22:15;;;;;;;13.17;6.30;;;;;;;;;;5153257;27;20227;-78
2022/10/13 07:24:43;;;;;;;11.10;6.30;;;;;;;;;;5156394;27;20204;-78
2022/10/13 07:27:10;;;;;;;11.20;5.97;;;;;;;;;;5157584;27;20192;-78
2022/10/13 07:29:39;;;;;;;9.73;5.87;;;;;;;;;;5157261;27;20255;-78
2022/10/13 07:32:07;;;;;;;8.40;5.77;;;;;;;;;;5157486;27;20238;-78
2022/10/13 07:34:34;;;;;;;10.63;5.90;;;;;;;;;;5157106;27;20238;-78
2022/10/13 07:37:01;;;;;;;7.93;5.57;;;;;;;;;;5157126;27;20786;-78
2022/10/13 07:39:29;;;;;;;10.40;6.00;;;;;;;;;;5156908;27;20328;-78
2022/10/13 07:41:56;;;;;;;12.97;5.63;;;;;;;;;;5157667;27;20279;-77
2022/10/13 07:44:23;;;;;;;9.20;5.70;;;;;;;;;;5157127;27;20200;-78
2022/10/13 07:46:52;;;;;;;10.33;6.07;;;;;;;;;;5157327;27;20196;-78
2022/10/13 07:49:19;;;;;;;8.63;5.60;;;;;;;;;;5157326;27;20747;-78
2022/10/13 07:51:46;;;;;;;10.03;5.77;;;;;;;;;;5156343;27;20201;-77
2022/10/13 07:54:13;;;;;;;9.70;5.83;;;;;;;;;;5157186;27;20312;-78
2022/10/13 07:56:40;;;;;;;9.70;5.43;;;;;;;;;;5157033;27;20307;-78
2022/10/13 07:59:08;;;;;;;7.27;5.70;;;;;;;;;;5157356;27;20228;-79
2022/10/13 08:01:35;;;;;;;9.77;5.67;;;;;;;;;;5156902;27;20228;-80
2022/10/13 08:04:03;;;;;;;9.83;5.60;;;;;;;;;;5156751;27;20237;-79
2022/10/13 08:06:30;;;;;;;8.97;5.83;;;;;;;;;;5156297;27;20192;-79
2022/10/13 08:08:59;;;;;;;7.33;5.40;;;;;;;;;;5156741;27;20256;-79
2022/10/13 08:11:27;;;;;;;10.93;5.70;;;;;;;;;;5156756;27;20203;-79
2022/10/13 08:13:54;;;;;;;10.00;5.70;;;;;;;;;;5162127;27;20250;-80
2022/10/13 08:16:22;;;;;;;12.37;5.83;;;;;;;;;;5156764;27;20234;-79
2022/10/13 08:18:49;;;;;;;10.90;5.87;;;;;;;;;;5156469;27;20227;-79
2022/10/13 08:21:18;;;;;;;10.87;5.83;;;;;;;;;;5161065;27;20219;-79
2022/10/13 08:23:46;;;;;;;9.77;5.63;;;;;;;;;;5175445;27;20679;-79
2022/10/13 08:26:15;;;;;;;10.37;6.00;;;;;;;;;;5156297;27;20284;-79
2022/10/13 08:28:43;;;;;;;9.67;5.80;;;;;;;;;;5156173;27;20794;-79
2022/10/13 08:31:10;;;;;;;8.00;5.90;;;;;;;;;;5156270;27;20279;-78
2022/10/13 08:33:37;;;;;;;9.67;6.30;;;;;;;;;;5156480;27;20197;-79
2022/10/13 08:36:04;;;;;;;9.53;5.87;;;;;;;;;;5155254;27;20243;-78
2022/10/13 08:38:33;;;;;;;10.47;6.23;;;;;;;;;;5156534;27;20239;-79
2022/10/13 08:41:00;;;;;;;13.33;6.60;;;;;;;;;;5156038;27;20664;-78
2022/10/13 08:43:28;;;;;;;11.23;6.03;;;;;;;;;;5156316;27;20291;-79
2022/10/13 08:45:57;;;;;;;9.23;6.03;;;;;;;;;;5155797;27;20287;-78
2022/10/13 08:48:26;;;;;;;10.93;5.73;;;;;;;;;;5156256;27;20239;-78
2022/10/13 08:50:56;;;;;;;10.13;6.07;;;;;;;;;;5155774;27;20201;-78
2022/10/13 08:53:26;;;;;;;9.77;5.90;;;;;;;;;;5156331;27;20215;-78
2022/10/13 08:55:56;;;;;;;9.03;6.13;;;;;;;;;;5155633;27;20228;-79
2022/10/13 08:58:25;;;;;;;10.30;6.73;;;;;;;;;;5156433;27;20193;-78
2022/10/13 09:00:58;;;;;;;8.70;6.13;;;;;;;;;;5155845;27;20738;-78
2022/10/13 09:03:27;;;;;;;10.93;5.90;;;;;;;;;;5155677;27;20203;-78
2022/10/13 09:05:59;;;;;;;10.10;6.17;;;;;;;;;;5154645;27;20279;-79
2022/10/13 09:08:27;;;;;;;7.93;6.00;;;;;;;;;;5154859;27;20228;-79
2022/10/13 09:10:56;;;;;;;12.93;6.50;;;;;;;;;;5155520;27;20280;-78
2022/10/13 09:13:23;;;;;;;8.77;5.90;;;;;;;;;;5155525;27;20233;-78
2022/10/13 09:15:50;;;;;;;9.80;5.83;;;;;;;;;;5155283;27;20196;-78
2022/10/13 09:18:18;;;;;;;9.07;6.03;;;;;;;;;;5154960;27;20251;-79
2022/10/13 09:20:45;;;;;;;8.97;6.37;;;;;;;;;;5156172;27;20279;-79
2022/10/13 09:23:18;;;;;;;9.40;5.90;;;;;;;;;;5176319;27;20700;-78
2022/10/13 09:25:46;;;;;;;12.47;6.30;;;;;;;;;;5161456;27;20291;-78
2022/10/13 09:28:17;;;;;;;9.50;6.30;;;;;;;;;;5155211;27;20192;-79
2022/10/13 09:30:45;;;;;;;10.07;6.50;;;;;;;;;;5154942;27;20671;-79
2022/10/13 09:33:19;;;;;;;7.90;5.97;;;;;;;;;;5154904;27;20197;-79
2022/10/13 09:35:47;;;;;;;11.20;6.23;;;;;;;;;;5155387;27;20232;-79
2022/10/13 09:38:16;;;;;;;7.90;5.63;;;;;;;;;;5155021;27;20262;-80
2022/10/13 09:40:44;;;;;;;10.93;6.70;;;;;;;;;;5155011;27;20750;-79
2022/10/13 09:43:25;;;;;;;11.27;6.20;;;;;;;;;;5154492;27;20192;-79
2022/10/13 09:45:53;;;;;;;7.90;6.27;;;;;;;;;;5155188;27;20228;-79
2022/10/13 09:48:22;;;;;;;9.10;6.77;;;;;;;;;;5153506;27;20231;-79
2022/10/13 09:50:49;;;;;;;11.73;7.10;;;;;;;;;;5154420;27;20189;-79
2022/10/13 09:53:21;;;;;;;10.67;7.60;;;;;;;;;;5154288;27;20287;-79
2022/10/13 09:55:49;;;;;;;10.53;7.70;;;;;;;;;;5154579;27;20287;-79
2022/10/13 09:58:19;;;;;;;10.27;7.70;;;;;;;;;;5153831;27;20639;-79
2022/10/13 10:00:49;;;;;;;11.13;7.87;;;;;;;;;;5154576;27;20283;-79
2022/10/13 10:03:20;;;;;;;12.50;8.20;;;;;;;;;;5133370;27;20652;-79
2022/10/13 10:05:50;;;;;;;9.60;7.70;;;;;;;;;;5136874;27;20210;-79
2022/10/13 10:08:20;;;;;;;10.10;7.83;;;;;;;;;;5154304;27;20699;-78
2022/10/13 10:10:48;;;;;;;10.40;8.00;;;;;;;;;;5153970;27;20287;-78
2022/10/13 10:13:15;;;;;;;10.07;7.43;;;;;;;;;;5154626;27;20291;-79
2022/10/13 10:15:47;;;;;;;10.07;7.13;;;;;;;;;;5154715;27;20286;-78
2022/10/13 10:18:18;;;;;;;10.43;7.73;;;;;;;;;;5154470;27;20255;-78
2022/10/13 10:20:50;;;;;;;9.73;8.00;;;;;;;;;;5154928;27;20287;-78
2022/10/13 10:23:19;;;;;;;12.63;7.63;;;;;;;;;;5154664;27;20567;-78
2022/10/13 10:25:48;;;;;;;10.47;8.40;;;;;;;;;;5154444;27;20208;-79
2022/10/13 10:28:28;;;;;;;11.07;8.40;;;;;;;;;;5153935;27;20219;-78
2022/10/13 10:31:02;;;;;;;13.00;8.07;;;;;;;;;;5154181;27;20242;-78
2022/10/13 10:33:37;;;;;;;12.50;8.03;;;;;;;;;;5154144;27;20196;-79
2022/10/13 10:36:15;;;;;;;13.23;8.60;;;;;;;;;;5154457;27;20246;-78
2022/10/13 10:38:45;;;;;;;11.63;6.83;;;;;;;;;;5133766;28;20247;-79
2022/10/13 10:41:17;;;;;;;9.10;7.17;;;;;;;;;;5133950;28;20233;-79
2022/10/13 10:43:47;;;;;;;9.23;7.10;;;;;;;;;;5133276;28;20647;-78
2022/10/13 10:46:17;;;;;;;8.77;7.00;;;;;;;;;;5133390;28;20300;-78
2022/10/13 10:48:46;;;;;;;10.13;6.57;;;;;;;;;;5133251;28;20196;-78
2022/10/13 10:51:14;;;;;;;11.27;6.87;;;;;;;;;;5134813;27;20197;-78
2022/10/13 10:53:46;;;;;;;8.80;6.30;;;;;;;;;;5154087;27;20238;-78
2022/10/13 10:56:16;;;;;;;9.27;6.23;;;;;;;;;;5154072;27;20228;-79
2022/10/13 10:58:46;;;;;;;8.87;5.93;;;;;;;;;;5155125;27;20219;-78
2022/10/13 11:01:25;;;;;;;8.07;6.47;;;;;;;;;;5158185;27;20220;-78
2022/10/13 11:03:56;;;;;;;7.37;6.27;;;;;;;;;;5158154;27;20283;-78
2022/10/13 11:06:26;;;;;;;10.00;6.57;;;;;;;;;;5157503;27;20193;-78
2022/10/13 11:08:54;;;;;;;12.13;6.40;;;;;;;;;;5157896;27;20235;-79
2022/10/13 11:11:32;;;;;;;11.53;6.30;;;;;;;;;;5158142;27;20238;-78
2022/10/13 11:14:00;;;;;;;10.63;6.60;;;;;;;;;;5157351;27;20279;-78
2022/10/13 11:16:28;;;;;;;9.37;5.90;;;;;;;;;;5157840;27;20250;-79
2022/10/13 11:19:04;;;;;;;10.47;6.50;;;;;;;;;;5158230;27;20656;-78
2022/10/13 11:21:46;;;;;;;8.33;6.23;;;;;;;;;;5157693;27;20203;-78
2022/10/13 11:24:28;;;;;;;11.37;6.50;;;;;;;;;;5157069;27;20228;-78
2022/10/13 11:26:56;;;;;;;9.00;6.33;;;;;;;;;;5157986;27;20200;-78
2022/10/13 11:29:43;;;;;;;8.97;6.13;;;;;;;;;;5157251;27;20256;-78
2022/10/13 11:32:41;;;;;;;7.20;5.90;;;;;;;;;;5157731;27;20965;-78
2022/10/13 11:35:21;;;;;;;5.53;3.50;;;;;;;;;;5157880;27;20652;-78
2022/10/13 11:37:52;;;;;;;4.97;3.50;;;;;;;;;;5156876;27;20212;-78
2022/10/13 11:40:24;;;;;;;3.43;2.67;;;;;;;;;;5157042;27;20239;-78
2022/10/13 11:43:10;;;;;;;4.40;2.67;;;;;;;;;;5157509;27;20348;-78
2022/10/13 11:45:46;;;;;;;3.47;2.43;;;;;;;;;;5157439;27;20196;-78
2022/10/13 11:48:28;;;;;;;5.03;2.50;;;;;;;;;;5169031;27;20199;-78
2022/10/13 11:51:03;;;;;;;3.30;2.87;;;;;;;;;;5135881;27;20231;-78
2022/10/13 11:53:34;;;;;;;4.07;3.20;;;;;;;;;;5157732;27;20223;-78
2022/10/13 11:56:01;;;;;;;5.00;2.97;;;;;;;;;;5157006;27;20228;-78
2022/10/13 11:58:30;;;;;;;3.87;2.80;;;;;;;;;;5157291;27;20255;-78
2022/10/13 12:00:58;;;;;;;4.00;2.67;;;;;;;;;;5157189;27;20552;-78
2022/10/13 12:03:30;;;;;;;3.63;2.57;;;;;;;;;;5157043;27;20292;-78
2022/10/13 12:06:01;;;;;;;3.87;2.70;;;;;;;;;;5157703;27;20236;-79
2022/10/13 12:08:29;;;;;;;3.23;2.67;;;;;;;;;;5177781;27;20234;-78
2022/10/13 12:10:58;;;;;;;2.57;2.00;;;;;;;;;;5176286;27;20923;-78
2022/10/13 12:13:27;;;;;;;2.60;1.73;;;;;;;;;;5177395;27;20199;-78
2022/10/13 12:15:59;;;;;;;2.43;1.97;;;;;;;;;;5177925;27;20282;-79
2022/10/13 12:18:28;;;;;;;2.10;1.77;;;;;;;;;;5177210;27;20261;-78
2022/10/13 12:20:56;;;;;;;2.40;1.63;;;;;;;;;;5175842;27;20203;-79
2022/10/13 12:23:25;;;;;;;1.50;1.37;;;;;;;;;;5174396;27;20605;-79
2022/10/13 12:25:56;;;;;;;1.50;1.40;;;;;;;;;;5162179;27;20240;-78
2022/10/13 12:28:25;;;;;;;3.03;1.50;;;;;;;;;;5156484;27;20197;-78
2022/10/13 12:30:53;;;;;;;2.47;1.53;;;;;;;;;;5155680;27;20203;-79
2022/10/13 12:33:23;;;;;;;2.23;1.40;;;;;;;;;;5156148;27;20308;-79
2022/10/13 12:35:50;;;;;;;1.63;1.30;;;;;;;;;;5156566;27;20287;-78
2022/10/13 12:38:19;;;;;;;2.63;1.40;;;;;;;;;;5156081;27;20308;-78
2022/10/13 12:40:48;;;;;;;2.57;1.33;;;;;;;;;;5156210;27;20618;-79
2022/10/13 12:43:17;;;;;;;1.50;1.40;;;;;;;;;;5156358;27;20251;-78
2022/10/13 12:45:44;;;;;;;1.53;1.10;;;;;;;;;;5156462;27;20283;-78
2022/10/13 12:48:26;;;;;;;2.37;1.30;;;;;;;;;;5156136;27;20231;-78
2022/10/13 12:50:53;;;;;;;1.30;1.10;;;;;;;;;;5155621;27;20275;-78
2022/10/13 12:53:25;;;;;;;1.77;1.40;;;;;;;;;;5155738;27;20239;-78
2022/10/13 12:55:57;;;;;;;1.57;1.37;;;;;;;;;;5155782;27;20234;-78
2022/10/13 12:58:27;;;;;;;1.70;1.40;;;;;;;;;;5156064;27;20231;-78
2022/10/13 13:01:07;;;;;;;1.63;1.00;;;;;;;;;;5156097;27;20223;-78
2022/10/13 13:03:36;;;;;;;1.83;1.10;;;;;;;;;;5156017;27;20287;-79
2022/10/13 13:06:11;;;;;;;1.90;1.40;;;;;;;;;;5155663;27;20287;-78
2022/10/13 13:08:38;;;;;;;2.23;1.80;;;;;;;;;;5155083;27;20280;-78
2022/10/13 13:11:07;;;;;;;2.80;1.60;;;;;;;;;;5155194;27;20287;-78
2022/10/13 13:13:35;;;;;;;2.40;1.60;;;;;;;;;;5155643;27;20536;-77
2022/10/13 13:16:15;;;;;;;1.97;1.67;;;;;;;;;;5155712;27;20291;-78
2022/10/13 13:18:43;;;;;;;2.60;2.03;;;;;;;;;;5155676;27;20249;-78
2022/10/13 13:21:12;;;;;;;2.60;1.90;;;;;;;;;;5155274;27;20235;-77
2022/10/13 13:23:39;;;;;;;2.40;1.90;;;;;;;;;;5154925;27;20831;-78
2022/10/13 13:26:14;;;;;;;2.37;2.03;;;;;;;;;;5155077;27;20208;-79
2022/10/13 13:28:44;;;;;;;2.90;1.90;;;;;;;;;;5155321;27;20725;-78
2022/10/13 13:31:11;;;;;;;2.90;1.80;;;;;;;;;;5154927;27;20283;-78
2022/10/13 13:33:38;;;;;;;3.97;2.30;;;;;;;;;;5155546;27;20224;-78
2022/10/13 13:36:06;;;;;;;4.23;2.50;;;;;;;;;;5155744;27;20279;-78
2022/10/13 13:38:33;;;;;;;2.60;2.40;;;;;;;;;;5154475;27;20299;-78
2022/10/13 13:41:01;;;;;;;3.37;1.97;;;;;;;;;;5154926;27;20220;-78
2022/10/13 13:43:29;;;;;;;3.53;2.23;;;;;;;;;;5155168;27;20228;-78
2022/10/13 13:45:56;;;;;;;3.87;2.20;;;;;;;;;;5154964;27;20283;-78
2022/10/13 13:48:25;;;;;;;3.40;2.50;;;;;;;;;;5154484;27;20683;-78
2022/10/13 13:50:52;;;;;;;2.67;2.10;;;;;;;;;;5155074;27;20707;-78
2022/10/13 13:53:19;;;;;;;3.00;2.40;;;;;;;;;;5154882;27;20283;-78
2022/10/13 13:55:47;;;;;;;2.67;2.27;;;;;;;;;;5154722;27;20303;-78
2022/10/13 13:58:15;;;;;;;3.20;2.30;;;;;;;;;;5154393;27;20307;-78
2022/10/13 14:00:43;;;;;;;3.60;2.30;;;;;;;;;;5154377;27;20683;-78
2022/10/13 14:03:11;;;;;;;2.43;2.20;;;;;;;;;;5155137;27;20235;-78
2022/10/13 14:05:39;;;;;;;2.30;2.07;;;;;;;;;;5154435;27;20254;-78
2022/10/13 14:08:07;;;;;;;3.80;2.40;;;;;;;;;;5154122;27;20267;-78
2022/10/13 14:10:34;;;;;;;2.67;2.10;;;;;;;;;;5154225;27;20287;-78
2022/10/13 14:13:01;;;;;;;3.80;1.97;;;;;;;;;;5154041;27;20273;-78
2022/10/13 14:15:29;;;;;;;2.67;2.00;;;;;;;;;;5154364;27;20231;-78
2022/10/13 14:17:57;;;;;;;3.70;2.10;;;;;;;;;;5154473;27;20756;-78
2022/10/13 14:20:24;;;;;;;3.80;2.33;;;;;;;;;;5155297;27;20639;-78
2022/10/13 14:22:52;;;;;;;3.00;2.27;;;;;;;;;;5154248;27;20231;-78
2022/10/13 14:25:19;;;;;;;2.40;1.90;;;;;;;;;;5154378;27;20579;-78
2022/10/13 14:27:47;;;;;;;2.73;1.80;;;;;;;;;;5154158;27;20287;-78
2022/10/13 14:30:15;;;;;;;2.00;1.77;;;;;;;;;;5166187;27;20657;-78
2022/10/13 14:32:42;;;;;;;2.03;1.73;;;;;;;;;;5174663;27;20235;-78
2022/10/13 14:35:10;;;;;;;5.17;2.03;;;;;;;;;;5174607;27;20286;-78
2022/10/13 14:37:38;;;;;;;3.10;2.10;;;;;;;;;;5163725;27;20739;-78
2022/10/13 14:40:05;;;;;;;2.73;2.00;;;;;;;;;;5153869;27;20252;-79
2022/10/13 14:42:32;;;;;;;3.17;2.00;;;;;;;;;;5154074;27;20231;-79
2022/10/13 14:45:01;;;;;;;2.93;2.10;;;;;;;;;;5153459;27;20231;-78
2022/10/13 14:47:28;;;;;;;3.00;2.20;;;;;;;;;;5154465;27;20203;-78